createdAt,value
2018-06-24T00:01:27.803Z,69.18
2018-06-24T00:03:56.038Z,69.24
2018-06-24T00:06:24.243Z,68.50
2018-06-24T00:08:52.593Z,68.92
2018-06-24T00:11:20.818Z,69.51
2018-06-24T00:13:49.102Z,68.82
2018-06-24T00:16:17.336Z,69.47
2018-06-24T00:18:45.869Z,68.93
2018-06-24T00:21:14.101Z,68.86
2018-06-24T00:23:42.329Z,69.56
2018-06-24T00:26:10.560Z,68.92
2018-06-24T00:28:38.796Z,68.37
2018-06-24T00:31:07.038Z,68.84
2018-06-24T00:33:35.295Z,69.36
2018-06-24T00:36:03.542Z,68.33
2018-06-24T00:38:31.753Z,68.99
2018-06-24T00:41:00.109Z,69.57
2018-06-24T00:43:28.324Z,69.60
2018-06-24T00:45:56.541Z,69.42
2018-06-24T00:48:24.816Z,69.55
2018-06-24T00:50:53.129Z,69.74
2018-06-24T00:53:21.357Z,69.39
2018-06-24T00:55:49.573Z,68.72
2018-06-24T00:58:17.864Z,69.18
2018-06-24T01:00:46.113Z,69.50
2018-06-24T01:03:14.369Z,69.70
2018-06-24T01:05:42.597Z,68.86
2018-06-24T01:08:10.816Z,68.92
2018-06-24T01:10:39.076Z,69.62
2018-06-24T01:13:07.362Z,69.29
2018-06-24T01:15:35.646Z,68.79
2018-06-24T01:18:03.909Z,69.97
2018-06-24T01:20:32.200Z,69.31
2018-06-24T01:23:00.505Z,70.23
2018-06-24T01:25:28.729Z,70.34
2018-06-24T01:27:57.048Z,69.70
2018-06-24T01:30:25.248Z,69.55
2018-06-24T01:32:53.497Z,70.50
2018-06-24T01:35:21.832Z,69.65
2018-06-24T01:37:50.088Z,70.11
2018-06-24T01:40:18.351Z,70.09
2018-06-24T01:42:46.650Z,69.54
2018-06-24T01:45:14.879Z,70.31
2018-06-24T01:47:43.090Z,69.93
2018-06-24T01:50:11.349Z,70.58
2018-06-24T01:52:39.626Z,69.59
2018-06-24T01:55:07.897Z,69.77
2018-06-24T01:57:36.168Z,69.51
2018-06-24T02:00:04.800Z,69.68
2018-06-24T02:02:33.017Z,70.70
2018-06-24T02:05:01.787Z,70.81
2018-06-24T02:07:30.038Z,70.90
2018-06-24T02:09:58.252Z,70.62
2018-06-24T02:12:26.489Z,70.54
2018-06-24T02:14:54.728Z,69.79
2018-06-24T02:17:22.944Z,70.48
2018-06-24T02:19:51.231Z,70.54
2018-06-24T02:22:19.435Z,70.57
2018-06-24T02:24:47.663Z,69.58
2018-06-24T02:27:15.876Z,69.81
2018-06-24T02:29:44.101Z,70.31
2018-06-24T02:32:12.360Z,70.35
2018-06-24T02:34:40.587Z,69.94
2018-06-24T02:37:08.831Z,69.86
2018-06-24T02:39:37.086Z,69.71
2018-06-24T02:42:05.420Z,69.85
2018-06-24T02:44:33.662Z,70.42
2018-06-24T02:47:01.910Z,70.02
2018-06-24T02:49:30.226Z,69.90
2018-06-24T02:51:58.449Z,70.14
2018-06-24T02:54:26.737Z,69.83
2018-06-24T02:56:55.026Z,70.20
2018-06-24T02:59:23.248Z,69.57
2018-06-24T03:01:51.456Z,69.72
2018-06-24T03:04:19.726Z,69.60
2018-06-24T03:06:48.021Z,69.84
2018-06-24T03:09:16.285Z,69.80
2018-06-24T03:11:44.492Z,69.74
2018-06-24T03:14:12.701Z,70.13
2018-06-24T03:16:40.957Z,70.74
2018-06-24T03:19:09.233Z,71.17
2018-06-24T03:21:37.472Z,70.63
2018-06-24T03:24:06.066Z,70.85
2018-06-24T03:26:34.315Z,70.23
2018-06-24T03:29:02.509Z,70.14
2018-06-24T03:31:30.758Z,70.05
2018-06-24T03:33:59.019Z,70.26
2018-06-24T03:36:27.258Z,70.44
2018-06-24T03:38:55.476Z,70.47
2018-06-24T03:41:23.793Z,70.70
2018-06-24T03:43:52.002Z,70.90
2018-06-24T03:46:20.271Z,70.67
2018-06-24T03:48:48.533Z,71.04
2018-06-24T03:51:16.857Z,70.09
2018-06-24T03:53:45.086Z,70.27
2018-06-24T03:56:13.320Z,70.48
2018-06-24T03:58:41.545Z,70.18
2018-06-24T04:01:09.881Z,70.77
2018-06-24T04:03:38.211Z,70.66
2018-06-24T04:06:06.454Z,71.35
2018-06-24T04:08:34.720Z,70.67
2018-06-24T04:11:02.985Z,71.30
2018-06-24T04:13:31.196Z,71.45
2018-06-24T04:16:07.461Z,70.84
2018-06-24T04:18:43.629Z,71.83
2018-06-24T04:21:13.864Z,71.64
2018-06-24T04:23:43.375Z,71.06
2018-06-24T04:26:11.969Z,71.62
2018-06-24T04:28:40.482Z,71.38
2018-06-24T04:31:09.694Z,72.26
2018-06-24T04:33:37.904Z,72.64
2018-06-24T04:36:06.469Z,72.66
2018-06-24T04:38:34.767Z,73.02
2018-06-24T04:41:03.193Z,73.32
2018-06-24T04:43:31.513Z,73.24
2018-06-24T04:46:01.427Z,73.09
2018-06-24T04:48:29.785Z,72.86
2018-06-24T04:50:58.045Z,72.57
2018-06-24T04:53:26.260Z,73.04
2018-06-24T04:55:54.534Z,72.86
2018-06-24T04:58:22.816Z,73.03
2018-06-24T05:00:51.143Z,73.84
2018-06-24T05:03:19.364Z,73.45
2018-06-24T05:05:47.639Z,73.69
2018-06-24T05:08:15.924Z,73.80
2018-06-24T05:10:44.646Z,73.59
2018-06-24T05:13:12.985Z,73.23
2018-06-24T05:15:41.274Z,73.93
2018-06-24T05:18:09.545Z,72.85
2018-06-24T05:20:37.796Z,73.88
2018-06-24T05:23:06.068Z,73.38
2018-06-24T05:25:34.385Z,74.50
2018-06-24T05:28:02.621Z,73.33
2018-06-24T05:30:30.878Z,73.30
2018-06-24T05:32:59.637Z,73.64
2018-06-24T05:35:27.920Z,74.44
2018-06-24T05:37:56.209Z,74.27
2018-06-24T05:40:24.469Z,73.70
2018-06-24T05:42:52.803Z,74.16
2018-06-24T05:45:21.028Z,73.79
2018-06-24T05:47:49.401Z,73.75
2018-06-24T05:50:17.644Z,74.07
2018-06-24T05:52:45.901Z,73.50
2018-06-24T05:55:14.199Z,73.87
2018-06-24T05:57:42.422Z,73.09
2018-06-24T06:00:16.222Z,74.10
2018-06-24T06:02:44.541Z,73.48
2018-06-24T06:05:12.788Z,74.19
2018-06-24T06:07:41.030Z,73.80
2018-06-24T06:10:09.372Z,72.92
2018-06-24T06:12:37.689Z,73.01
2018-06-24T06:15:06.010Z,72.61
2018-06-24T06:17:34.221Z,73.34
2018-06-24T06:20:02.495Z,73.20
2018-06-24T06:22:30.709Z,72.09
2018-06-24T06:24:59.152Z,72.35
2018-06-24T06:27:27.417Z,71.31
2018-06-24T06:29:55.685Z,71.29
2018-06-24T06:32:23.953Z,70.91
2018-06-24T06:34:52.219Z,71.21
2018-06-24T06:37:20.454Z,69.72
2018-06-24T06:39:48.743Z,70.07
2018-06-24T06:42:16.956Z,69.38
2018-06-24T06:44:45.216Z,69.74
2018-06-24T06:47:13.509Z,69.58
2018-06-24T06:49:41.818Z,70.33
2018-06-24T06:52:10.095Z,69.42
2018-06-24T06:54:38.620Z,69.40
2018-06-24T06:57:07.836Z,69.48
2018-06-24T06:59:36.064Z,69.55
2018-06-24T07:02:04.345Z,69.41
2018-06-24T07:04:32.601Z,68.01
2018-06-24T07:07:00.936Z,68.54
2018-06-24T07:09:29.220Z,66.70
2018-06-24T07:11:57.467Z,67.16
2018-06-24T07:14:25.721Z,66.32
2018-06-24T07:16:54.093Z,66.21
2018-06-24T07:19:22.353Z,65.72
2018-06-24T07:21:50.624Z,64.43
2018-06-24T07:24:18.874Z,64.57
2018-06-24T07:26:47.085Z,64.72
2018-06-24T07:29:15.333Z,64.23
2018-06-24T07:31:43.601Z,64.07
2018-06-24T07:34:11.876Z,63.83
2018-06-24T07:36:40.099Z,63.90
2018-06-24T07:39:09.984Z,62.88
2018-06-24T07:41:38.216Z,63.23
2018-06-24T07:44:06.452Z,63.24
2018-06-24T07:46:34.804Z,62.53
2018-06-24T07:49:03.085Z,62.11
2018-06-24T07:51:31.337Z,63.62
2018-06-24T07:53:59.607Z,62.60
2018-06-24T07:56:27.928Z,63.69
2018-06-24T07:58:56.157Z,63.36
2018-06-24T08:01:24.505Z,63.31
2018-06-24T08:03:52.757Z,62.24
2018-06-24T08:06:20.976Z,62.50
2018-06-24T08:08:49.257Z,62.57
2018-06-24T08:11:17.495Z,63.11
2018-06-24T08:13:45.700Z,62.53
2018-06-24T08:16:13.961Z,62.15
2018-06-24T08:18:42.197Z,62.63
2018-06-24T08:21:10.450Z,62.20
2018-06-24T08:23:38.632Z,61.51
2018-06-24T08:26:07.013Z,61.38
2018-06-24T08:28:35.236Z,61.35
2018-06-24T08:31:03.533Z,60.83
2018-06-24T08:33:31.801Z,61.17
2018-06-24T08:36:00.019Z,61.94
2018-06-24T08:38:28.276Z,61.53
2018-06-24T08:40:56.533Z,62.58
2018-06-24T08:43:24.781Z,61.77
2018-06-24T08:45:53.043Z,61.38
2018-06-24T08:48:21.318Z,61.39
2018-06-24T08:50:49.552Z,61.14
2018-06-24T08:53:17.921Z,61.05
2018-06-24T08:55:46.261Z,61.77
2018-06-24T08:58:14.488Z,60.45
2018-06-24T09:00:42.776Z,60.68
2018-06-24T09:03:10.959Z,59.39
2018-06-24T09:05:39.208Z,60.14
2018-06-24T09:08:07.477Z,60.12
2018-06-24T09:10:35.768Z,59.31
2018-06-24T09:13:04.021Z,59.89
2018-06-24T09:15:32.296Z,60.11
2018-06-24T09:18:00.591Z,59.76
2018-06-24T09:20:28.813Z,60.28
2018-06-24T09:22:57.068Z,59.57
2018-06-24T09:25:25.332Z,58.96
2018-06-24T09:27:53.632Z,59.50
2018-06-24T09:30:21.849Z,58.49
2018-06-24T09:32:50.109Z,59.17
2018-06-24T09:35:18.378Z,58.94
2018-06-24T09:37:46.600Z,59.96
2018-06-24T09:40:14.848Z,59.51
2018-06-24T09:42:43.170Z,58.82
2018-06-24T09:45:11.463Z,59.14
2018-06-24T09:47:39.693Z,58.84
2018-06-24T09:50:08.324Z,59.71
2018-06-24T09:52:36.633Z,60.01
2018-06-24T09:55:04.915Z,60.10
2018-06-24T09:57:33.195Z,59.40
2018-06-24T10:00:01.433Z,58.66
2018-06-24T10:02:29.736Z,58.49
2018-06-24T10:04:58.009Z,58.27
2018-06-24T10:07:26.281Z,58.21
2018-06-24T10:09:54.532Z,58.81
2018-06-24T10:12:22.819Z,57.28
2018-06-24T10:14:51.048Z,56.84
2018-06-24T10:17:19.257Z,55.45
2018-06-24T10:19:47.478Z,55.66
2018-06-24T10:22:15.762Z,56.27
2018-06-24T10:24:44.004Z,55.43
2018-06-24T10:27:12.274Z,57.20
2018-06-24T10:29:40.672Z,56.56
2018-06-24T10:32:08.910Z,56.35
2018-06-24T10:34:37.212Z,56.25
2018-06-24T10:37:05.528Z,56.47
2018-06-24T10:39:33.757Z,55.71
2018-06-24T10:42:02.013Z,54.98
2018-06-24T10:44:30.258Z,54.39
2018-06-24T10:46:58.589Z,53.19
2018-06-24T10:49:26.924Z,53.62
2018-06-24T10:51:55.233Z,54.93
2018-06-24T10:54:23.446Z,54.68
2018-06-24T10:56:51.701Z,54.89
2018-06-24T10:59:19.918Z,53.39
2018-06-24T11:01:48.277Z,51.12
2018-06-24T11:04:16.626Z,50.96
2018-06-24T11:06:44.873Z,49.87
2018-06-24T11:09:13.073Z,50.36
2018-06-24T11:11:41.372Z,49.83
2018-06-24T11:14:09.651Z,49.05
2018-06-24T11:16:38.132Z,48.29
2018-06-24T11:19:06.504Z,49.09
2018-06-24T11:21:34.769Z,48.65
2018-06-24T11:24:03.113Z,47.00
2018-06-24T11:26:31.345Z,46.58
2018-06-24T11:28:59.628Z,45.00
2018-06-24T11:31:27.889Z,47.28
2018-06-24T11:33:56.140Z,45.46
2018-06-24T11:36:24.403Z,47.73
2018-06-24T11:38:52.616Z,49.97
2018-06-24T11:41:20.865Z,50.14
2018-06-24T11:43:49.105Z,49.59
2018-06-24T11:46:17.404Z,48.05
2018-06-24T11:48:45.693Z,47.88
2018-06-24T11:51:13.916Z,45.58
2018-06-24T11:53:42.181Z,46.76
2018-06-24T11:56:10.469Z,44.27
2018-06-24T11:58:38.736Z,45.95
2018-06-24T12:01:07.020Z,46.41
2018-06-24T12:03:35.334Z,45.18
2018-06-24T12:06:03.740Z,43.33
2018-06-24T12:08:32.025Z,44.09
2018-06-24T12:11:00.361Z,42.88
2018-06-24T12:13:28.694Z,43.32
2018-06-24T12:15:56.976Z,42.33
2018-06-24T12:18:25.238Z,43.11
2018-06-24T12:20:53.488Z,45.42
2018-06-24T12:23:21.760Z,43.80
2018-06-24T12:25:50.013Z,44.98
2018-06-24T12:28:18.278Z,43.76
2018-06-24T12:30:46.617Z,42.95
2018-06-24T12:33:14.856Z,42.66
2018-06-24T12:35:43.878Z,42.20
2018-06-24T12:38:12.109Z,41.88
2018-06-24T12:40:40.424Z,42.74
2018-06-24T12:43:08.693Z,44.01
2018-06-24T12:45:36.984Z,44.55
2018-06-24T12:48:05.434Z,43.97
2018-06-24T12:50:33.707Z,42.62
2018-06-24T12:53:02.063Z,41.99
2018-06-24T12:55:31.548Z,42.47
2018-06-24T12:57:59.786Z,42.00
2018-06-24T13:00:28.676Z,44.53
2018-06-24T13:02:56.529Z,42.97
2018-06-24T13:05:24.891Z,42.13
2018-06-24T13:07:53.249Z,43.20
2018-06-24T13:10:21.679Z,45.54
2018-06-24T13:12:50.396Z,45.47
2018-06-24T13:15:18.751Z,45.89
2018-06-24T13:17:47.077Z,44.96
2018-06-24T13:20:15.449Z,45.11
2018-06-24T13:22:43.863Z,47.22
2018-06-24T13:25:12.445Z,46.93
2018-06-24T13:27:40.797Z,46.99
2018-06-24T13:30:09.189Z,46.34
2018-06-24T13:32:37.512Z,46.42
2018-06-24T13:35:05.838Z,46.88
2018-06-24T13:37:34.252Z,46.30
2018-06-24T13:40:05.002Z,45.99
2018-06-24T13:42:33.250Z,46.62
2018-06-24T13:45:01.625Z,45.71
2018-06-24T13:47:29.893Z,44.95
2018-06-24T13:49:58.160Z,45.60
2018-06-24T13:52:26.465Z,45.28
2018-06-24T13:54:54.726Z,47.50
2018-06-24T13:57:22.973Z,48.78
2018-06-24T13:59:51.285Z,48.82
2018-06-24T14:02:19.608Z,47.96
2018-06-24T14:04:47.851Z,47.53
2018-06-24T14:07:16.090Z,47.08
2018-06-24T14:09:44.432Z,48.67
2018-06-24T14:12:12.748Z,48.59
2018-06-24T14:14:41.157Z,47.01
2018-06-24T14:17:09.436Z,47.47
2018-06-24T14:19:37.860Z,47.71
2018-06-24T14:22:06.213Z,48.13
2018-06-24T14:24:34.546Z,47.71
2018-06-24T14:27:03.039Z,47.28
2018-06-24T14:29:31.351Z,47.27
2018-06-24T14:31:59.609Z,48.41
2018-06-24T14:34:27.865Z,47.83
2018-06-24T14:36:57.102Z,49.82
2018-06-24T14:39:25.346Z,50.23
2018-06-24T14:41:53.553Z,49.34
2018-06-24T14:44:21.936Z,50.67
2018-06-24T14:46:50.275Z,49.12
2018-06-24T14:49:18.589Z,50.40
2018-06-24T14:51:47.097Z,50.15
2018-06-24T14:54:15.766Z,50.26
2018-06-24T14:56:44.137Z,50.16
2018-06-24T14:59:12.435Z,50.66
2018-06-24T15:01:40.776Z,49.60
2018-06-24T15:04:09.129Z,49.82
2018-06-24T15:06:37.555Z,50.57
2018-06-24T15:09:08.092Z,50.86
2018-06-24T15:11:37.592Z,50.42
2018-06-24T15:14:06.229Z,50.53
2018-06-24T15:16:34.885Z,51.18
2018-06-24T15:19:03.241Z,51.26
2018-06-24T15:21:31.518Z,51.32
2018-06-24T15:23:59.855Z,51.85
2018-06-24T15:26:28.153Z,51.59
2018-06-24T15:28:56.453Z,52.02
2018-06-24T15:31:25.049Z,52.37
2018-06-24T15:33:53.356Z,52.81
2018-06-24T15:36:21.745Z,52.61
2018-06-24T15:38:50.081Z,53.42
2018-06-24T15:41:18.397Z,52.98
2018-06-24T15:43:46.667Z,52.36
2018-06-24T15:46:15.013Z,52.42
2018-06-24T15:48:46.184Z,53.07
2018-06-24T15:51:17.982Z,53.77
2018-06-24T15:53:46.523Z,53.00
2018-06-24T15:56:14.885Z,53.91
2018-06-24T15:58:43.180Z,53.75
2018-06-24T16:01:11.537Z,54.11
2018-06-24T16:03:39.920Z,53.91
2018-06-24T16:06:08.237Z,53.71
2018-06-24T16:08:37.206Z,54.04
2018-06-24T16:11:05.792Z,53.48
2018-06-24T16:13:34.483Z,54.06
2018-06-24T16:16:02.874Z,54.46
2018-06-24T16:18:31.377Z,54.46
2018-06-24T16:21:01.162Z,54.91
2018-06-24T16:23:29.818Z,55.00
2018-06-24T16:25:58.335Z,53.84
2018-06-24T16:28:27.160Z,54.38
2018-06-24T16:30:56.666Z,54.36
2018-06-24T16:33:25.127Z,54.96
2018-06-24T16:35:53.583Z,54.04
2018-06-24T16:38:22.008Z,54.60
2018-06-24T16:40:51.047Z,55.27
2018-06-24T16:43:19.386Z,55.61
2018-06-24T16:45:47.985Z,55.38
2018-06-24T16:48:17.083Z,55.06
2018-06-24T16:50:45.707Z,55.72
2018-06-24T16:53:14.157Z,55.72
2018-06-24T16:55:42.657Z,56.81
2018-06-24T16:58:11.693Z,56.25
2018-06-24T17:00:39.937Z,56.30
2018-06-24T17:03:08.221Z,57.27
2018-06-24T17:05:36.505Z,57.30
2018-06-24T17:08:04.869Z,56.64
2018-06-24T17:10:33.186Z,56.94
2018-06-24T17:13:01.578Z,57.26
2018-06-24T17:15:29.853Z,57.08
2018-06-24T17:17:58.109Z,57.16
2018-06-24T17:20:26.448Z,58.25
2018-06-24T17:22:54.961Z,57.12
2018-06-24T17:25:23.317Z,57.72
2018-06-24T17:27:51.580Z,57.63
2018-06-24T17:30:19.809Z,58.43
2018-06-24T17:32:48.181Z,58.47
2018-06-24T17:35:16.481Z,59.17
2018-06-24T17:37:44.841Z,58.52
2018-06-24T17:40:13.080Z,58.40
2018-06-24T17:42:41.317Z,58.43
2018-06-24T17:45:09.705Z,58.73
2018-06-24T17:47:38.230Z,59.02
2018-06-24T17:50:06.381Z,59.11
2018-06-24T17:52:34.609Z,58.69
2018-06-24T17:55:02.808Z,59.40
2018-06-24T17:57:31.060Z,59.50
2018-06-24T17:59:59.961Z,59.40
2018-06-24T18:02:28.217Z,59.07
2018-06-24T18:04:56.492Z,59.35
2018-06-24T18:07:24.824Z,58.61
2018-06-24T18:09:53.120Z,58.78
2018-06-24T18:12:21.453Z,59.31
2018-06-24T18:14:49.725Z,59.15
2018-06-24T18:17:17.981Z,59.26
2018-06-24T18:19:46.204Z,59.33
2018-06-24T18:22:14.440Z,60.09
2018-06-24T18:24:42.697Z,59.90
2018-06-24T18:27:10.969Z,60.68
2018-06-24T18:29:39.271Z,60.67
2018-06-24T18:32:07.518Z,60.25
2018-06-24T18:34:35.748Z,60.41
2018-06-24T18:37:04.125Z,60.31
2018-06-24T18:39:32.404Z,59.66
2018-06-24T18:42:00.626Z,60.02
2018-06-24T18:44:28.881Z,60.54
2018-06-24T18:46:57.093Z,60.41
2018-06-24T18:49:25.391Z,60.58
2018-06-24T18:51:53.609Z,60.08
2018-06-24T18:54:22.034Z,60.35
2018-06-24T18:56:50.310Z,61.37
2018-06-24T18:59:18.657Z,60.78
2018-06-24T19:01:46.994Z,60.90
2018-06-24T19:04:15.209Z,61.91
2018-06-24T19:06:43.417Z,61.80
2018-06-24T19:09:13.312Z,61.58
2018-06-24T19:11:41.960Z,61.24
2018-06-24T19:14:10.240Z,61.36
2018-06-24T19:16:39.120Z,61.09
2018-06-24T19:19:07.421Z,60.63
2018-06-24T19:21:35.644Z,61.65
2018-06-24T19:24:03.989Z,61.87
2018-06-24T19:26:32.252Z,61.93
2018-06-24T19:29:00.641Z,61.93
2018-06-24T19:31:28.894Z,62.05
2018-06-24T19:33:57.125Z,62.07
2018-06-24T19:36:25.341Z,61.89
2018-06-24T19:38:53.869Z,62.44
2018-06-24T19:41:22.136Z,62.08
2018-06-24T19:43:50.400Z,62.57
2018-06-24T19:46:18.632Z,62.88
2018-06-24T19:48:46.864Z,63.02
2018-06-24T19:51:15.093Z,62.70
2018-06-24T19:53:43.333Z,62.57
2018-06-24T19:56:11.565Z,61.85
2018-06-24T19:58:39.777Z,62.77
2018-06-24T20:01:08.021Z,62.89
2018-06-24T20:03:36.280Z,63.08
2018-06-24T20:06:04.564Z,62.75
2018-06-24T20:08:32.792Z,62.34
2018-06-24T20:11:01.061Z,63.12
2018-06-24T20:13:29.314Z,62.33
2018-06-24T20:15:57.506Z,63.56
2018-06-24T20:18:25.746Z,63.67
2018-06-24T20:20:53.977Z,63.24
2018-06-24T20:23:22.177Z,64.39
2018-06-24T20:25:50.505Z,63.76
2018-06-24T20:28:18.777Z,64.53
2018-06-24T20:30:46.992Z,64.80
2018-06-24T20:33:15.190Z,63.50
2018-06-24T20:35:43.477Z,65.24
2018-06-24T20:38:11.753Z,66.58
2018-06-24T20:40:40.077Z,66.79
2018-06-24T20:43:08.301Z,67.04
2018-06-24T20:45:36.507Z,67.54
2018-06-24T20:48:04.921Z,67.25
2018-06-24T20:50:33.169Z,67.03
2018-06-24T20:53:01.418Z,66.89
2018-06-24T20:55:29.657Z,66.72
2018-06-24T20:57:57.880Z,66.21
2018-06-24T21:00:26.085Z,67.07
2018-06-24T21:02:54.344Z,65.68
2018-06-24T21:05:22.574Z,66.41
2018-06-24T21:07:50.855Z,66.70
2018-06-24T21:10:19.065Z,67.68
2018-06-24T21:12:47.265Z,67.24
2018-06-24T21:15:15.481Z,68.31
2018-06-24T21:17:43.716Z,68.87
2018-06-24T21:20:11.945Z,68.82
2018-06-24T21:22:40.277Z,68.88
2018-06-24T21:25:08.539Z,70.04
2018-06-24T21:27:36.828Z,69.48
2018-06-24T21:30:05.268Z,70.78
2018-06-24T21:32:33.516Z,70.78
2018-06-24T21:35:01.744Z,70.87
2018-06-24T21:37:29.993Z,70.69
2018-06-24T21:39:58.213Z,71.00
2018-06-24T21:42:26.486Z,70.29
2018-06-24T21:44:54.754Z,70.21
2018-06-24T21:47:22.980Z,70.44
2018-06-24T21:49:51.431Z,70.93
2018-06-24T21:52:19.640Z,70.99
2018-06-24T21:54:47.861Z,70.52
2018-06-24T21:57:16.093Z,70.79
2018-06-24T21:59:44.316Z,71.71
2018-06-24T22:02:12.597Z,70.86
2018-06-24T22:04:40.772Z,71.58
2018-06-24T22:07:09.036Z,71.36
2018-06-24T22:09:37.273Z,71.67
2018-06-24T22:12:05.597Z,71.14
2018-06-24T22:14:33.814Z,71.71
2018-06-24T22:17:02.025Z,72.17
2018-06-24T22:19:30.284Z,72.87
2018-06-24T22:21:58.571Z,74.04
2018-06-24T22:24:27.018Z,74.66
2018-06-24T22:26:55.229Z,74.56
2018-06-24T22:29:23.435Z,75.06
2018-06-24T22:31:51.674Z,76.50
2018-06-24T22:34:19.924Z,75.59
2018-06-24T22:36:48.154Z,76.37
2018-06-24T22:39:16.382Z,75.18
2018-06-24T22:41:44.585Z,74.54
2018-06-24T22:44:12.825Z,75.26
2018-06-24T22:46:41.073Z,75.34
2018-06-24T22:49:09.293Z,76.20
2018-06-24T22:51:37.573Z,75.21
2018-06-24T22:54:06.041Z,76.35
2018-06-24T22:56:34.268Z,75.83
2018-06-24T22:59:13.896Z,75.39
2018-06-24T23:01:42.152Z,75.52
2018-06-24T23:04:10.381Z,74.79
2018-06-24T23:06:38.645Z,75.44
2018-06-24T23:09:07.993Z,75.12
2018-06-24T23:11:36.223Z,74.95
2018-06-24T23:14:04.487Z,75.45
2018-06-24T23:16:32.748Z,74.57
2018-06-24T23:19:00.956Z,74.60
2018-06-24T23:21:29.187Z,75.23
2018-06-24T23:23:57.550Z,75.19
2018-06-24T23:26:25.773Z,74.67
2018-06-24T23:28:53.998Z,74.82
2018-06-24T23:31:22.229Z,74.69
2018-06-24T23:33:50.505Z,74.83
2018-06-24T23:36:18.800Z,75.40
2018-06-24T23:38:47.009Z,75.58
2018-06-24T23:41:15.236Z,75.41
2018-06-24T23:43:43.690Z,75.29
2018-06-24T23:46:11.924Z,75.42
2018-06-24T23:48:40.216Z,74.42
2018-06-24T23:51:08.520Z,74.97
2018-06-24T23:53:36.733Z,75.39
2018-06-24T23:56:04.944Z,74.35
2018-06-24T23:58:33.160Z,75.00
